Time;durP1;ratioP1;P1;durP2;ratioP2;P2;SDS_P1;SDS_P2;PMS_P1;PMS_P2;Temp;Humidity;BMP_temperature;BMP_pressure;BME280_temperature;BME280_humidity;BME280_pressure;Samples;Min_cycle;Max_cycle;Signal;HPM_P1;HPM_P2
2022/04/17 00:01:31;;;;;;;8.05;4.32;;;;;;;7.64;55.59;103028.97;5013568;28;20026;-40
2022/04/17 00:03:56;;;;;;;7.28;4.40;;;;;;;7.68;54.59;103030.34;5013516;28;20041;-40
2022/04/17 00:06:21;;;;;;;7.43;4.15;;;;;;;7.51;54.39;103025.63;5013805;28;20030;-40
2022/04/17 00:08:47;;;;;;;7.07;4.63;;;;;;;7.66;53.45;103020.19;5013440;28;20052;-40
2022/04/17 00:11:12;;;;;;;6.18;4.07;;;;;;;7.78;53.29;103040.81;5013317;28;20104;-40
2022/04/17 00:13:38;;;;;;;6.40;4.40;;;;;;;7.73;52.87;103032.59;5012770;28;20500;-41
2022/04/17 00:16:03;;;;;;;8.13;4.38;;;;;;;7.72;52.56;103031.78;5012680;28;20026;-40
2022/04/17 00:18:29;;;;;;;6.15;4.30;;;;;;;7.64;52.89;103027.19;4994887;28;20109;-40
2022/04/17 00:20:54;;;;;;;8.05;4.50;;;;;;;7.68;53.49;103028.63;5013062;28;20029;-40
2022/04/17 00:23:19;;;;;;;7.30;4.60;;;;;;;7.68;53.14;103033.78;5012488;28;20100;-40
2022/04/17 00:25:45;;;;;;;10.88;4.75;;;;;;;7.57;53.97;103028.59;5012773;28;20104;-40
2022/04/17 00:28:10;;;;;;;7.82;4.57;;;;;;;7.46;54.88;103029.38;5013019;28;20034;-40
2022/04/17 00:30:35;;;;;;;6.25;4.15;;;;;;;7.42;55.78;103022.81;5015649;28;20029;-41
2022/04/17 00:33:01;;;;;;;10.45;4.90;;;;;;;7.28;56.92;103022.16;5015578;28;20080;-40
2022/04/17 00:35:26;;;;;;;10.18;4.55;;;;;;;7.27;56.11;103023.09;5015743;28;20022;-41
2022/04/17 00:37:52;;;;;;;7.90;4.30;;;;;;;7.39;55.19;103022.19;5016125;28;20025;-40
2022/04/17 00:40:17;;;;;;;6.60;4.78;;;;;;;7.32;59.23;103021.00;5015802;28;20022;-40
2022/04/17 00:42:42;;;;;;;10.80;5.00;;;;;;;7.31;56.44;103022.78;5015755;28;20029;-41
2022/04/17 00:45:09;;;;;;;8.85;4.60;;;;;;;7.32;56.84;103014.09;5014437;28;20017;-40
2022/04/17 00:47:35;;;;;;;6.50;4.75;;;;;;;7.15;56.37;103007.59;5015686;28;20113;-40
2022/04/17 00:50:02;;;;;;;9.13;5.00;;;;;;;7.09;55.99;103010.63;5015617;28;20026;-41
2022/04/17 00:52:28;;;;;;;8.63;5.10;;;;;;;7.15;55.22;103005.03;5015553;28;20120;-41
2022/04/17 00:54:55;;;;;;;7.75;4.60;;;;;;;7.18;55.40;103004.81;5015559;28;20029;-41
2022/04/17 00:57:22;;;;;;;9.45;4.85;;;;;;;7.26;55.00;103004.28;5015871;28;20491;-41
2022/04/17 00:59:51;;;;;;;9.25;4.88;;;;;;;7.12;55.29;103001.88;5015484;28;20037;-40
2022/04/17 01:02:17;;;;;;;9.45;4.50;;;;;;;7.17;55.26;103005.75;5015983;28;20484;-40
2022/04/17 01:04:44;;;;;;;7.57;5.00;;;;;;;7.17;55.04;103008.31;5015407;28;20022;-40
2022/04/17 01:07:10;;;;;;;8.80;4.65;;;;;;;7.10;54.83;103003.72;5015885;28;20034;-40
2022/04/17 01:09:36;;;;;;;9.10;4.80;;;;;;;7.14;55.09;103002.59;5015329;28;20476;-40
2022/04/17 01:12:01;;;;;;;10.48;4.88;;;;;;;7.03;55.09;103005.91;5015196;28;20113;-41
2022/04/17 01:14:27;;;;;;;7.25;5.05;;;;;;;6.99;55.26;102996.75;4980277;28;1046697;-40
2022/04/17 01:16:53;;;;;;;9.40;5.07;;;;;;;6.97;55.59;103003.78;5016662;28;20061;-41
2022/04/17 01:19:18;;;;;;;6.88;4.68;;;;;;;6.94;55.68;103001.44;5016732;28;20380;-41
2022/04/17 01:21:46;;;;;;;10.32;5.00;;;;;;;6.92;55.86;102995.56;5016442;28;20022;-41
2022/04/17 01:27:00;;;;;;;11.02;5.10;;;;;;;6.85;55.66;102999.47;5016647;28;20028;-41
2022/04/17 01:29:25;;;;;;;9.30;4.88;;;;;;;6.88;56.16;102994.97;5016474;28;20432;-40
2022/04/17 01:31:51;;;;;;;9.38;4.90;;;;;;;6.86;56.19;102998.56;5016296;28;20109;-40
2022/04/17 01:34:17;;;;;;;7.32;5.00;;;;;;;6.68;56.87;102992.97;5016195;28;20036;-40
2022/04/17 01:36:47;;;;;;;10.13;4.80;;;;;;;6.77;56.01;102989.75;5016080;28;20030;-40
2022/04/17 01:39:13;;;;;;;8.30;4.63;;;;;;;6.78;55.66;102987.06;5015605;28;20053;-40
2022/04/17 01:41:39;;;;;;;7.82;5.00;;;;;;;6.92;55.97;102988.66;5016013;28;20061;-41
2022/04/17 01:44:05;;;;;;;9.50;4.60;;;;;;;6.76;55.39;102988.94;5015928;28;20108;-41
2022/04/17 01:46:31;;;;;;;9.32;5.22;;;;;;;6.80;55.69;102988.72;4998331;28;20044;-40
2022/04/17 01:48:56;;;;;;;11.02;5.40;;;;;;;6.73;56.28;102989.16;5014583;28;20484;-41
2022/04/17 01:51:22;;;;;;;8.07;5.07;;;;;;;6.59;56.29;102986.72;5015975;28;20026;-40
2022/04/17 01:53:47;;;;;;;8.35;4.85;;;;;;;6.55;56.93;102982.72;5015714;28;20456;-40
2022/04/17 01:56:13;;;;;;;8.98;5.18;;;;;;;6.48;56.39;102974.63;5016117;28;20037;-42
2022/04/17 01:58:38;;;;;;;7.93;5.07;;;;;;;6.34;56.50;102985.03;5015817;28;20400;-40
2022/04/17 02:01:04;;;;;;;8.95;5.18;;;;;;;6.38;56.66;102968.47;5015687;28;20032;-40
2022/04/17 02:03:29;;;;;;;8.93;5.28;;;;;;;6.30;56.78;102961.31;5016119;28;20030;-39
2022/04/17 02:05:55;;;;;;;8.75;5.30;;;;;;;6.38;56.52;102968.47;5015910;28;20030;-39
2022/04/17 02:08:20;;;;;;;8.48;5.35;;;;;;;6.31;56.47;102974.97;5016167;28;20113;-39
2022/04/17 02:10:45;;;;;;;11.13;5.47;;;;;;;6.35;57.21;102967.88;5015362;28;20358;-40
2022/04/17 02:13:10;;;;;;;10.50;5.22;;;;;;;6.47;56.91;102970.44;5015411;28;20096;-40
2022/04/17 02:15:36;;;;;;;7.63;4.88;;;;;;;6.51;56.72;102971.03;5015448;28;20507;-39
2022/04/17 02:18:01;;;;;;;11.45;5.60;;;;;;;6.23;56.94;102972.09;5015417;28;20033;-41
2022/04/17 02:20:26;;;;;;;8.60;5.45;;;;;;;6.28;56.61;102957.22;5015667;28;20068;-40
2022/04/17 02:22:52;;;;;;;11.07;5.20;;;;;;;6.43;57.05;102960.47;4998238;28;20465;-41
2022/04/17 02:25:17;;;;;;;16.60;5.50;;;;;;;6.44;56.82;102959.53;5015565;28;20022;-40
2022/04/17 02:27:44;;;;;;;9.23;5.30;;;;;;;6.40;56.59;102964.06;4997648;28;20419;-40
2022/04/17 02:30:09;;;;;;;9.00;5.07;;;;;;;6.21;57.21;102958.53;5015345;28;20472;-41
2022/04/17 02:32:35;;;;;;;12.20;5.70;;;;;;;6.37;57.13;102958.31;5015246;28;20061;-40
2022/04/17 02:35:00;;;;;;;9.27;5.18;;;;;;;6.37;56.73;102955.75;5015323;28;20026;-40
2022/04/17 02:37:26;;;;;;;8.90;5.55;;;;;;;6.45;56.90;102958.63;5015110;28;20029;-40
2022/04/17 02:39:51;;;;;;;12.60;5.53;;;;;;;6.38;57.24;102959.94;5015053;28;20105;-41
2022/04/17 02:42:16;;;;;;;10.77;5.40;;;;;;;6.41;57.79;102959.75;5015033;28;20065;-40
2022/04/17 02:44:42;;;;;;;9.43;5.55;;;;;;;6.44;56.67;102967.22;5014959;28;20022;-42
2022/04/17 02:49:51;;;;;;;8.27;5.13;;;;;;;6.16;60.77;102958.88;5014951;28;20575;-41
2022/04/17 02:52:16;;;;;;;9.77;5.35;;;;;;;6.07;58.63;102960.31;5014220;28;20026;-41
2022/04/17 02:54:41;;;;;;;9.13;5.30;;;;;;;6.08;59.18;102964.50;5015000;28;20080;-41
2022/04/17 02:57:07;;;;;;;11.05;5.90;;;;;;;6.00;60.75;102964.19;5015226;28;20036;-40
2022/04/17 02:59:32;;;;;;;11.48;6.22;;;;;;;5.89;60.24;102958.94;5014657;28;20030;-40
2022/04/17 03:07:26;;;;;;;9.32;5.10;;;;;;;5.76;61.78;102958.94;5015073;28;20460;-40
2022/04/17 03:09:51;;;;;;;9.32;5.70;;;;;;;5.81;60.85;102956.06;5014377;28;20014;-40
2022/04/17 03:12:17;;;;;;;10.85;5.80;;;;;;;5.78;61.39;102957.09;5014493;28;20026;-40
2022/04/17 03:14:42;;;;;;;9.50;6.00;;;;;;;5.84;60.19;102954.13;5014637;28;20049;-41
2022/04/17 03:17:07;;;;;;;11.23;5.80;;;;;;;5.90;59.28;102947.75;5014379;28;20022;-40
2022/04/17 03:19:33;;;;;;;12.07;5.68;;;;;;;6.05;58.31;102951.06;5014521;28;20465;-40
2022/04/17 03:21:58;;;;;;;11.38;6.25;;;;;;;6.10;57.86;102949.03;5014279;28;20025;-41
2022/04/17 03:24:23;;;;;;;8.70;5.70;;;;;;;6.06;58.00;102942.44;5014512;28;20022;-40
2022/04/17 03:26:48;;;;;;;8.80;5.60;;;;;;;5.94;58.72;102938.97;5013635;28;20083;-39
2022/04/17 03:29:14;;;;;;;9.05;5.72;;;;;;;5.85;58.76;102942.13;5014326;28;20022;-41
2022/04/17 03:31:39;;;;;;;11.20;5.63;;;;;;;5.81;59.21;102936.38;5014075;28;20032;-45
2022/04/17 03:34:08;;;;;;;9.65;6.10;;;;;;;5.66;59.58;102925.38;5014385;28;20469;-41
2022/04/17 03:36:35;;;;;;;13.98;5.50;;;;;;;5.82;58.83;102930.31;5013939;28;20028;-41
2022/04/17 03:39:00;;;;;;;9.65;5.97;;;;;;;5.72;59.01;102931.84;5014195;28;20030;-40
2022/04/17 03:41:25;;;;;;;9.43;6.05;;;;;;;5.65;59.09;102934.00;5013849;28;20372;-40
2022/04/17 03:43:51;;;;;;;11.40;6.05;;;;;;;5.57;59.73;102931.09;5014137;28;20032;-40
2022/04/17 03:46:16;;;;;;;15.68;6.55;;;;;;;5.65;58.99;102928.03;5014131;28;20033;-41
2022/04/17 03:48:42;;;;;;;12.15;6.00;;;;;;;5.68;59.59;102927.03;5014058;28;20079;-40
2022/04/17 03:51:07;;;;;;;12.13;6.53;;;;;;;5.53;59.79;102927.13;5013929;28;20030;-41
2022/04/17 03:53:32;;;;;;;11.20;6.28;;;;;;;5.36;60.16;102925.66;5014296;28;20065;-41
2022/04/17 03:55:57;;;;;;;10.35;6.43;;;;;;;5.49;59.80;102923.09;5013775;28;20022;-41
2022/04/17 03:58:23;;;;;;;9.65;6.20;;;;;;;5.40;61.74;102923.69;5013684;28;20097;-40
2022/04/17 04:00:48;;;;;;;10.05;6.32;;;;;;;5.41;60.54;102923.63;5013374;28;20103;-41
2022/04/17 04:03:13;;;;;;;37.17;7.35;;;;;;;5.41;61.17;102920.25;5013034;28;20033;-41
2022/04/17 04:05:39;;;;;;;10.50;6.28;;;;;;;5.43;60.95;102918.38;5013813;28;20033;-41
2022/04/17 04:08:04;;;;;;;10.82;6.07;;;;;;;5.32;62.11;102915.69;5013508;28;20107;-41
2022/04/17 04:10:29;;;;;;;11.38;6.40;;;;;;;5.09;62.17;102919.75;5013407;28;20460;-41
2022/04/17 04:12:56;;;;;;;11.15;6.60;;;;;;;5.03;64.31;102915.00;5013242;28;20068;-49
2022/04/17 04:15:21;;;;;;;9.45;6.38;;;;;;;5.07;62.58;102919.03;5013645;28;20033;-41
2022/04/17 04:17:47;;;;;;;11.27;6.57;;;;;;;5.08;63.56;102912.97;5013451;28;20416;-41
2022/04/17 04:20:12;;;;;;;10.60;6.72;;;;;;;5.01;64.85;102914.31;5013603;28;20034;-41
2022/04/17 04:22:37;;;;;;;11.60;6.88;;;;;;;4.84;64.41;102907.69;5013430;28;20029;-41
2022/04/17 04:25:03;;;;;;;12.00;6.85;;;;;;;4.98;63.32;102911.00;5013364;28;20037;-41
2022/04/17 04:30:12;;;;;;;11.93;7.35;;;;;;;5.08;62.67;102910.41;5013660;28;20036;-41
2022/04/17 04:32:37;;;;;;;12.27;7.30;;;;;;;4.91;62.46;102889.25;5013814;28;20100;-41
2022/04/17 04:35:04;;;;;;;11.30;6.72;;;;;;;5.03;63.83;102905.56;5013508;28;20026;-40
2022/04/17 04:37:29;;;;;;;12.10;7.32;;;;;;;4.97;62.47;102904.22;5013170;28;20034;-40
2022/04/17 04:39:56;;;;;;;10.77;6.75;;;;;;;5.01;62.34;102902.31;5013144;28;20045;-40
2022/04/17 04:42:22;;;;;;;11.73;6.88;;;;;;;4.98;62.76;102903.31;4995557;28;20393;-41
2022/04/17 04:46:06;;;;;;;10.57;7.03;;;;;;;5.01;62.82;102899.75;5013121;28;20109;-41
2022/04/17 04:47:33;;;;;;;12.02;7.15;;;;;;;5.07;62.44;102899.34;5013022;28;20037;-41
2022/04/17 04:49:58;;;;;;;18.45;7.18;;;;;;;4.90;62.53;102894.47;5013139;28;20379;-41
2022/04/17 04:52:23;;;;;;;11.10;7.47;;;;;;;4.82;62.81;102891.59;5011807;28;20420;-40
2022/04/17 04:54:48;;;;;;;12.57;7.47;;;;;;;4.88;63.23;102893.75;5013099;28;20030;-40
2022/04/17 04:57:14;;;;;;;14.43;7.03;;;;;;;5.01;62.31;102888.69;5012988;28;20025;-40
2022/04/17 04:59:39;;;;;;;12.70;7.00;;;;;;;5.10;61.85;102890.66;5013255;28;20156;-41
2022/04/17 05:02:04;;;;;;;12.65;7.28;;;;;;;4.91;62.29;102891.81;5011796;28;20072;-40
2022/04/17 05:04:29;;;;;;;13.98;7.38;;;;;;;4.80;62.43;102888.28;5013423;28;20025;-41
2022/04/17 05:06:55;;;;;;;10.13;7.18;;;;;;;4.91;62.40;102893.56;5013485;28;20040;-40
2022/04/17 05:09:20;;;;;;;13.90;7.82;;;;;;;4.92;62.42;102890.06;5012927;28;20026;-41
2022/04/17 05:11:46;;;;;;;12.75;7.60;;;;;;;5.14;62.47;102894.63;5013114;28;20061;-40
2022/04/17 05:14:11;;;;;;;12.63;7.35;;;;;;;5.16;62.21;102885.13;5013231;28;20049;-41
2022/04/17 05:16:36;;;;;;;13.63;7.30;;;;;;;5.22;61.28;102884.72;5016479;28;20041;-42
2022/04/17 05:19:21;;;;;;;13.93;7.80;;;;;;;5.09;61.99;102886.41;5016729;28;20026;-41
2022/04/17 05:21:47;;;;;;;11.20;7.18;;;;;;;5.28;61.27;102886.06;5016424;28;20033;-41
2022/04/17 05:24:14;;;;;;;34.42;9.15;;;;;;;5.16;61.26;102887.69;5016256;28;20481;-41
2022/04/17 05:26:39;;;;;;;13.38;7.53;;;;;;;5.25;61.24;102894.75;5016288;28;20029;-40
2022/04/17 05:29:04;;;;;;;13.38;7.40;;;;;;;5.26;61.00;102891.28;5016312;28;20030;-41
2022/04/17 05:31:30;;;;;;;13.65;8.18;;;;;;;5.29;60.55;102892.81;5016126;28;20022;-41
2022/04/17 05:33:55;;;;;;;15.93;7.60;;;;;;;5.49;59.88;102891.50;5016183;28;20128;-41
2022/04/17 05:36:21;;;;;;;15.02;7.75;;;;;;;5.52;59.93;102891.31;5016335;28;20021;-41
2022/04/17 05:38:47;;;;;;;12.85;7.50;;;;;;;5.32;59.78;102896.03;4998503;28;20374;-41
2022/04/17 05:41:13;;;;;;;12.50;7.60;;;;;;;5.24;60.24;102887.19;5016224;28;20117;-41
2022/04/17 05:43:39;;;;;;;13.45;7.53;;;;;;;5.32;59.96;102882.34;5015967;28;20477;-41
2022/04/17 05:46:04;;;;;;;13.90;7.80;;;;;;;5.56;59.53;102887.63;5016188;28;20033;-39
2022/04/17 05:48:29;;;;;;;12.13;7.38;;;;;;;5.78;59.22;102897.25;5016147;28;20392;-40
2022/04/17 05:50:55;;;;;;;12.27;7.53;;;;;;;5.96;58.35;102896.06;5015745;28;20033;-42
2022/04/17 05:53:20;;;;;;;14.43;7.75;;;;;;;6.15;57.38;102895.59;5015763;28;20036;-40
2022/04/17 05:55:46;;;;;;;12.30;7.13;;;;;;;6.15;56.91;102893.03;5016295;28;20022;-40
2022/04/17 05:58:11;;;;;;;13.27;7.53;;;;;;;6.32;56.73;102902.94;5016024;28;20033;-40
2022/04/17 06:00:37;;;;;;;13.43;7.57;;;;;;;6.76;56.32;102901.56;5015726;28;20022;-40
2022/04/17 06:03:03;;;;;;;12.02;7.60;;;;;;;8.75;51.31;102897.72;5015916;28;20037;-41
2022/04/17 06:05:30;;;;;;;15.63;7.28;;;;;;;15.84;34.93;102895.06;5015841;28;20030;-41
2022/04/17 06:07:55;;;;;;;11.95;6.88;;;;;;;18.48;29.87;102896.50;5015857;28;20100;-42
2022/04/17 06:10:20;;;;;;;10.70;7.28;;;;;;;18.97;29.27;102900.13;5015388;28;20080;-47
2022/04/17 06:12:45;;;;;;;8.73;6.25;;;;;;;19.79;26.73;102888.84;5015724;28;20046;-42
2022/04/17 06:15:11;;;;;;;10.75;6.45;;;;;;;20.52;25.44;102888.97;5015747;28;20034;-42
2022/04/17 06:17:41;;;;;;;11.32;6.43;;;;;;;19.04;26.50;102887.88;5015920;28;20032;-43
2022/04/17 06:20:12;;;;;;;8.07;6.15;;;;;;;18.44;27.72;102893.44;4996787;28;20026;-42
2022/04/17 06:22:38;;;;;;;10.73;5.93;;;;;;;18.49;28.11;102898.91;5015258;28;20065;-42
2022/04/17 06:25:05;;;;;;;9.00;5.80;;;;;;;18.41;27.85;102895.59;5015235;28;20033;-42
2022/04/17 06:27:40;;;;;;;9.45;5.53;;;;;;;20.21;26.01;102895.59;4997273;28;20044;-43
2022/04/17 06:30:20;;;;;;;10.00;5.43;;;;;;;21.42;24.08;102893.72;5015434;28;20022;-40
2022/04/17 06:32:46;;;;;;;8.32;5.50;;;;;;;21.10;24.12;102885.69;5014833;28;20040;-43
2022/04/17 06:35:13;;;;;;;7.53;5.28;;;;;;;20.71;24.46;102887.38;5015667;28;20044;-43
2022/04/17 06:37:56;;;;;;;8.13;5.63;;;;;;;21.93;23.39;102879.72;5015341;28;20026;-41
2022/04/17 06:40:23;;;;;;;7.63;5.00;;;;;;;22.91;22.14;102879.13;5015309;28;20068;-42
2022/04/17 06:42:51;;;;;;;9.10;5.05;;;;;;;22.59;22.45;102881.06;5014965;28;20034;-41
2022/04/17 06:45:17;;;;;;;8.75;5.22;;;;;;;21.42;23.29;102883.19;5015278;28;20120;-44
2022/04/17 06:47:43;;;;;;;6.28;4.63;;;;;;;22.16;22.24;102871.25;5015016;28;20081;-41
2022/04/17 06:50:10;;;;;;;6.53;4.57;;;;;;;22.13;22.27;102874.31;5015171;28;20021;-40
2022/04/17 06:52:35;;;;;;;8.52;4.60;;;;;;;23.03;21.53;102871.31;5014765;28;20068;-42
2022/04/17 06:55:01;;;;;;;7.25;4.75;;;;;;;21.21;23.22;102871.91;5015025;28;20018;-44
2022/04/17 06:57:33;;;;;;;7.50;4.93;;;;;;;22.03;22.22;102872.94;5014729;28;20048;-41
2022/04/17 07:00:07;;;;;;;7.82;4.40;;;;;;;23.00;20.86;102869.94;5015419;28;20026;-41
2022/04/17 07:02:32;;;;;;;6.10;4.20;;;;;;;21.14;23.13;102861.41;5014735;28;20063;-42
2022/04/17 07:04:57;;;;;;;8.48;4.35;;;;;;;21.82;22.11;102865.41;5015108;28;20108;-42
2022/04/17 07:07:23;;;;;;;6.67;4.30;;;;;;;23.10;20.84;102864.13;5014629;28;20072;-40
2022/04/17 07:09:48;;;;;;;6.15;4.35;;;;;;;22.59;21.91;102858.16;5014323;28;20269;-41
2022/04/17 07:12:13;;;;;;;5.80;3.83;;;;;;;23.08;20.97;102858.28;4996887;28;20041;-42
2022/04/17 07:14:39;;;;;;;7.30;4.15;;;;;;;20.34;23.59;102854.63;5014156;28;20050;-42
2022/04/17 07:17:05;;;;;;;5.70;3.95;;;;;;;20.98;23.28;102861.88;4996802;28;20361;-42
2022/04/17 07:19:30;;;;;;;6.20;3.95;;;;;;;23.23;21.45;102858.72;4996997;28;20053;-41
2022/04/17 07:21:55;;;;;;;6.68;3.78;;;;;;;22.99;20.75;102857.78;5014148;28;20025;-42
2022/04/17 07:24:21;;;;;;;6.00;3.70;;;;;;;22.32;21.81;102846.22;5014272;28;20025;-43
2022/04/17 07:26:47;;;;;;;5.38;3.72;;;;;;;23.23;20.59;102842.88;5014369;28;20279;-42
2022/04/17 07:29:13;;;;;;;5.28;3.65;;;;;;;22.79;21.05;102841.31;5014628;28;20014;-41
2022/04/17 07:31:38;;;;;;;5.80;3.70;;;;;;;23.34;20.94;102841.34;5014014;28;20037;-41
2022/04/17 07:34:03;;;;;;;6.05;3.67;;;;;;;22.75;20.62;102839.13;5013364;28;20045;-40
2022/04/17 07:36:28;;;;;;;6.70;3.50;;;;;;;22.46;21.33;102837.19;5013320;28;20026;-39
2022/04/17 07:38:54;;;;;;;4.97;3.50;;;;;;;22.69;21.02;102831.28;5014121;28;20420;-40
2022/04/17 07:41:19;;;;;;;4.47;3.28;;;;;;;23.20;20.68;102838.06;5013259;28;20259;-42
2022/04/17 07:43:44;;;;;;;5.70;3.50;;;;;;;23.56;20.01;102842.47;5014135;28;20523;-42
2022/04/17 07:46:09;;;;;;;5.18;3.40;;;;;;;21.65;21.76;102833.50;5013754;28;20536;-42
2022/04/17 07:48:35;;;;;;;5.95;3.30;;;;;;;21.75;21.77;102831.22;5013665;28;20045;-41
2022/04/17 07:51:01;;;;;;;6.78;3.47;;;;;;;21.81;21.82;102822.50;5012618;28;20029;-43
2022/04/17 07:53:26;;;;;;;4.80;3.35;;;;;;;20.87;22.43;102817.81;5012659;28;20071;-41
2022/04/17 07:55:52;;;;;;;6.13;3.50;;;;;;;21.75;21.97;102819.88;5013568;28;20045;-43
2022/04/17 07:58:36;;;;;;;6.13;3.60;;;;;;;22.36;21.16;102821.88;5012946;28;20101;-45
2022/04/17 08:01:10;;;;;;;4.38;3.30;;;;;;;21.05;22.17;102823.22;5014361;28;20048;-42
2022/04/17 08:06:05;;;;;;;5.78;3.50;;;;;;;21.92;21.74;102817.53;5014044;28;20034;-41
2022/04/17 08:08:34;;;;;;;6.07;3.58;;;;;;;21.53;21.27;102814.16;5013420;28;20034;-43
2022/04/17 08:11:00;;;;;;;5.75;3.28;;;;;;;22.14;20.89;102818.78;5013623;28;20147;-41
2022/04/17 08:13:25;;;;;;;4.68;3.38;;;;;;;21.37;21.75;102823.31;5013219;28;20612;-43
2022/04/17 08:15:51;;;;;;;7.38;3.60;;;;;;;20.71;22.18;102819.91;5013559;28;20030;-42
2022/04/17 08:18:16;;;;;;;7.03;3.28;;;;;;;20.38;22.72;102821.72;5012646;28;20075;-42
2022/04/17 08:20:42;;;;;;;5.20;3.35;;;;;;;20.40;22.96;102811.78;5012876;28;20021;-44
2022/04/17 08:23:07;;;;;;;5.97;3.75;;;;;;;20.96;22.99;102814.75;5013344;28;20396;-41
2022/04/17 08:25:33;;;;;;;8.00;3.80;;;;;;;21.33;22.61;102811.59;5013623;28;20036;-41
2022/04/17 08:27:59;;;;;;;5.00;3.22;;;;;;;19.98;24.33;102814.63;5013928;28;20480;-41
2022/04/17 08:30:26;;;;;;;5.18;3.47;;;;;;;17.82;25.67;102810.31;4995656;28;20025;-42
2022/04/17 08:32:52;;;;;;;5.50;3.42;;;;;;;17.72;26.42;102805.38;5013490;28;20465;-41
2022/04/17 08:35:18;;;;;;;4.88;3.10;;;;;;;17.62;27.46;102815.31;5013686;28;20109;-41
2022/04/17 08:37:44;;;;;;;5.47;3.28;;;;;;;18.00;27.00;102809.88;5013212;28;20026;-42
2022/04/17 08:40:10;;;;;;;7.38;3.70;;;;;;;18.44;27.15;102806.22;5013090;28;20026;-41
2022/04/17 08:42:36;;;;;;;5.93;3.63;;;;;;;18.08;27.22;102807.16;5013083;28;20026;-41
2022/04/17 08:45:02;;;;;;;5.18;3.40;;;;;;;18.27;26.49;102803.09;5013443;28;20400;-41
2022/04/17 08:47:28;;;;;;;6.68;3.58;;;;;;;18.23;26.50;102809.69;5013764;28;20036;-42
2022/04/17 08:49:54;;;;;;;6.63;3.63;;;;;;;17.34;27.85;102794.28;4981209;28;20041;-42
2022/04/17 08:52:21;;;;;;;6.88;3.20;;;;;;;18.20;29.36;102792.56;5016752;28;20060;-41
2022/04/17 08:54:48;;;;;;;5.75;3.55;;;;;;;19.12;26.74;102806.47;5016803;28;20434;-42
2022/04/17 08:57:16;;;;;;;6.22;3.40;;;;;;;17.48;27.67;102795.25;5016859;28;20167;-41
2022/04/17 08:59:41;;;;;;;5.35;3.33;;;;;;;18.00;28.27;102795.00;5016972;28;20018;-41
2022/04/17 09:02:10;;;;;;;7.53;3.70;;;;;;;18.59;26.51;102790.44;5017062;28;20029;-41
2022/04/17 09:04:37;;;;;;;7.78;3.50;;;;;;;18.45;27.23;102794.78;5016868;28;20028;-41
2022/04/17 09:07:06;;;;;;;8.65;3.58;;;;;;;19.09;27.91;102793.75;5016820;28;20026;-48
2022/04/17 09:09:31;;;;;;;5.22;3.50;;;;;;;18.82;27.58;102796.25;5016417;28;20026;-41
2022/04/17 09:11:57;;;;;;;5.18;3.30;;;;;;;19.05;27.24;102784.69;5016985;28;20349;-41
2022/04/17 09:14:22;;;;;;;5.20;3.60;;;;;;;18.80;26.32;102779.91;5016366;28;20130;-42
2022/04/17 09:16:51;;;;;;;4.97;3.33;;;;;;;19.19;26.38;102783.75;5016995;28;20423;-42
2022/04/17 09:19:18;;;;;;;5.90;3.60;;;;;;;19.48;26.08;102781.78;5016698;28;20030;-42
2022/04/17 09:21:44;;;;;;;5.05;3.50;;;;;;;18.57;26.50;102781.97;4981814;28;20030;-41
2022/04/17 09:24:22;;;;;;;4.90;3.30;;;;;;;17.79;27.07;102780.13;5015374;28;20180;-41
2022/04/17 09:26:50;;;;;;;6.47;3.53;;;;;;;18.21;27.06;102767.19;5015836;28;20021;-41
2022/04/17 09:29:30;;;;;;;9.73;3.20;;;;;;;18.08;26.93;102762.69;5016047;28;20501;-40
2022/04/17 09:32:03;;;;;;;6.65;3.50;;;;;;;18.91;26.47;102766.28;5015787;28;20057;-41
2022/04/17 09:34:40;;;;;;;8.48;3.33;;;;;;;17.70;25.92;102760.28;5016696;28;20021;-40
2022/04/17 09:37:14;;;;;;;5.60;3.17;;;;;;;18.06;26.62;102758.63;5016097;28;20026;-41
2022/04/17 09:39:40;;;;;;;5.55;3.08;;;;;;;18.66;24.98;102757.25;5016157;28;20044;-41
2022/04/17 09:42:07;;;;;;;6.13;3.20;;;;;;;19.01;26.50;102754.63;5016446;28;20065;-40
2022/04/17 09:44:33;;;;;;;7.30;4.07;;;;;;;18.86;27.55;102745.09;5015623;28;20045;-41
2022/04/17 09:46:58;;;;;;;6.95;4.43;;;;;;;19.83;28.11;102751.03;5015968;28;20472;-41
2022/04/17 09:49:24;;;;;;;8.95;4.80;;;;;;;20.37;29.64;102743.94;4998608;28;20083;-41
2022/04/17 09:52:04;;;;;;;9.10;4.72;;;;;;;19.91;28.29;102740.34;5016290;28;20056;-41
2022/04/17 09:54:30;;;;;;;8.60;4.80;;;;;;;19.92;28.40;102735.91;4998416;28;20513;-41
2022/04/17 09:56:56;;;;;;;7.40;4.53;;;;;;;19.58;29.95;102737.66;5014437;28;20113;-42
2022/04/17 09:59:23;;;;;;;7.90;4.93;;;;;;;19.09;30.14;102738.75;5015651;28;20036;-42
2022/04/17 10:01:50;;;;;;;6.55;4.65;;;;;;;19.86;28.51;102724.41;5015815;28;20022;-42
2022/04/17 10:04:19;;;;;;;6.15;4.55;;;;;;;20.20;28.38;102728.63;5015576;28;20500;-42
2022/04/17 10:06:46;;;;;;;7.63;4.93;;;;;;;20.40;27.90;102718.09;5015549;28;20084;-42
2022/04/17 10:09:13;;;;;;;12.27;4.80;;;;;;;20.88;27.42;102701.19;5014738;28;20022;-41
2022/04/17 10:11:40;;;;;;;5.93;4.22;;;;;;;20.08;26.42;102713.69;5014905;28;20144;-40
2022/04/17 10:14:06;;;;;;;10.20;4.40;;;;;;;19.30;26.07;102716.81;5015251;28;20077;-42
2022/04/17 10:16:33;;;;;;;6.53;3.72;;;;;;;19.45;25.95;102703.53;5015242;28;20021;-40
2022/04/17 10:19:09;;;;;;;5.10;3.17;;;;;;;18.86;24.74;102705.81;5014996;28;20030;-42
2022/04/17 10:21:35;;;;;;;5.80;3.60;;;;;;;19.20;23.91;102700.69;5015527;28;20095;-42
2022/04/17 10:24:02;;;;;;;5.60;3.42;;;;;;;18.31;25.46;102699.66;5015336;28;20021;-42
2022/04/17 10:26:32;;;;;;;7.35;3.78;;;;;;;17.65;26.09;102697.28;4997833;28;20022;-42
2022/04/17 10:29:01;;;;;;;6.20;3.38;;;;;;;18.78;25.76;102689.44;5015311;28;20045;-42
2022/04/17 10:31:53;;;;;;;5.68;3.40;;;;;;;19.38;24.60;102686.00;5015192;28;20532;-41
2022/04/17 10:35:04;;;;;;;6.50;3.78;;;;;;;18.10;26.34;102695.28;4997431;28;20021;-41
2022/04/17 10:37:48;;;;;;;5.70;3.05;;;;;;;19.65;25.67;102686.06;5015112;28;20026;-42
2022/04/17 10:40:13;;;;;;;7.35;3.20;;;;;;;19.16;24.28;102676.66;5014857;28;20070;-41
2022/04/17 10:43:05;;;;;;;4.05;3.13;;;;;;;20.14;24.96;102669.09;5014824;28;20034;-42
2022/04/17 10:45:31;;;;;;;5.30;3.20;;;;;;;20.06;23.53;102667.47;5011334;28;20034;-42
2022/04/17 10:48:09;;;;;;;7.35;3.08;;;;;;;20.07;24.33;102668.28;5014686;28;20022;-42
2022/04/17 10:50:50;;;;;;;6.13;2.97;;;;;;;19.83;22.07;102660.03;5014960;28;20026;-42
2022/04/17 10:53:25;;;;;;;4.80;2.95;;;;;;;19.91;22.12;102656.41;5014739;28;20026;-41
2022/04/17 10:56:04;;;;;;;4.63;2.90;;;;;;;18.47;23.55;102661.88;4997541;28;20541;-40
2022/04/17 10:58:41;;;;;;;5.20;2.80;;;;;;;19.63;23.54;102650.53;5014678;28;20034;-42
2022/04/17 11:01:10;;;;;;;4.93;2.80;;;;;;;19.26;22.41;102640.41;4980904;28;20473;-42
2022/04/17 11:03:36;;;;;;;6.45;2.70;;;;;;;18.64;23.01;102654.50;5014771;28;20410;-46
2022/04/17 11:06:33;;;;;;;5.03;2.72;;;;;;;19.30;22.97;102639.00;5014771;28;20022;-41
2022/04/17 11:09:10;;;;;;;5.53;3.10;;;;;;;18.71;24.34;102643.06;4997408;28;20037;-41
2022/04/17 11:11:39;;;;;;;7.72;3.00;;;;;;;19.03;24.10;102637.34;5014230;28;20358;-42
2022/04/17 11:14:16;;;;;;;4.40;3.38;;;;;;;19.06;24.30;102632.50;5012920;28;20046;-41
2022/04/17 11:16:51;;;;;;;8.50;3.42;;;;;;;19.51;24.60;102630.16;5014054;28;20080;-41
2022/04/17 11:19:19;;;;;;;7.47;3.40;;;;;;;18.17;26.29;102640.38;5014689;28;20457;-42
2022/04/17 11:21:47;;;;;;;6.88;3.97;;;;;;;18.61;26.49;102628.72;5014096;28;20026;-41
2022/04/17 11:24:13;;;;;;;5.82;3.92;;;;;;;20.01;25.19;102624.47;5013005;28;20026;-42
2022/04/17 11:26:50;;;;;;;10.90;4.00;;;;;;;19.50;25.41;102617.22;5013760;28;20024;-43
2022/04/17 11:29:16;;;;;;;5.30;3.50;;;;;;;19.97;23.84;102615.41;5014537;28;20484;-43
2022/04/17 11:31:41;;;;;;;5.18;3.33;;;;;;;19.19;24.47;102607.31;4995985;28;20026;-43
2022/04/17 11:34:06;;;;;;;6.05;3.70;;;;;;;19.36;24.39;102606.75;4980189;28;20080;-40
2022/04/17 11:36:32;;;;;;;4.80;3.60;;;;;;;20.11;24.31;102619.63;5014187;28;20037;-42
2022/04/17 11:38:58;;;;;;;4.43;3.20;;;;;;;20.04;24.54;102603.06;5013635;28;20144;-42
2022/04/17 11:41:23;;;;;;;5.35;3.42;;;;;;;20.13;23.97;102593.16;5014135;28;20105;-41
2022/04/17 11:44:02;;;;;;;6.53;3.42;;;;;;;19.94;22.89;102586.94;5014522;28;20030;-41